Time;durP1;ratioP1;P1;durP2;ratioP2;P2;SDS_P1;SDS_P2;PMS_P1;PMS_P2;Temp;Humidity;BMP_temperature;BMP_pressure;BME280_temperature;BME280_humidity;BME280_pressure;Samples;Min_cycle;Max_cycle;Signal;HPM_P1;HPM_P2
2021/09/19 00:00:31;;;;;;;18.20;10.60;;;;;;;15.07;100.00;101596.38;4980570;28;20157;-61
2021/09/19 00:02:58;;;;;;;18.48;11.20;;;;;;;15.02;100.00;101591.59;4965095;28;20481;-62
2021/09/19 00:05:24;;;;;;;16.05;11.65;;;;;;;15.08;100.00;101594.59;4976191;28;20050;-60
2021/09/19 00:07:51;;;;;;;18.55;12.63;;;;;;;15.11;100.00;101579.25;4975072;28;20108;-62
2021/09/19 00:10:17;;;;;;;21.30;12.90;;;;;;;15.20;100.00;101578.28;4974186;28;20475;-62
2021/09/19 00:12:44;;;;;;;17.50;13.05;;;;;;;15.25;100.00;101577.00;4976671;28;20150;-62
2021/09/19 00:15:14;;;;;;;20.05;13.05;;;;;;;15.31;100.00;101576.34;4974562;28;20092;-62
2021/09/19 00:17:42;;;;;;;18.35;13.05;;;;;;;15.18;100.00;101561.78;4972435;28;20152;-61
2021/09/19 00:20:09;;;;;;;19.90;13.07;;;;;;;15.33;100.00;101567.28;4969168;28;20085;-61
2021/09/19 00:22:35;;;;;;;21.58;13.18;;;;;;;15.25;100.00;101563.78;4974011;28;20161;-62
2021/09/19 00:25:07;;;;;;;17.73;12.80;;;;;;;15.25;100.00;101564.63;4979857;28;20154;-61
2021/09/19 00:27:34;;;;;;;16.27;12.13;;;;;;;15.31;100.00;101560.50;4970262;28;20062;-61
2021/09/19 00:30:02;;;;;;;18.95;13.10;;;;;;;15.17;100.00;101560.13;4977043;28;20809;-63
2021/09/19 00:32:28;;;;;;;17.00;11.55;;;;;;;15.19;100.00;101562.59;4965270;28;20090;-61
2021/09/19 00:34:55;;;;;;;20.02;12.23;;;;;;;15.22;100.00;101554.34;4979824;28;20363;-60
2021/09/19 00:37:21;;;;;;;16.70;11.55;;;;;;;15.20;100.00;101558.97;4970769;28;20472;-61
2021/09/19 00:39:47;;;;;;;17.77;13.23;;;;;;;15.17;100.00;101556.63;4940130;28;1086534;-59
2021/09/19 00:42:14;;;;;;;17.10;12.98;;;;;;;15.13;100.00;101566.72;4976386;28;20745;-62
2021/09/19 00:44:40;;;;;;;19.02;14.02;;;;;;;15.01;100.00;101558.25;4968289;28;20905;-61
2021/09/19 00:47:07;;;;;;;18.88;13.18;;;;;;;14.99;100.00;101554.09;4973331;28;20070;-63
2021/09/19 00:49:34;;;;;;;22.48;14.43;;;;;;;15.03;100.00;101558.06;4971950;28;20085;-61
2021/09/19 00:52:01;;;;;;;23.17;16.17;;;;;;;15.04;100.00;101557.09;4976817;28;20142;-59
2021/09/19 00:54:27;;;;;;;25.08;15.88;;;;;;;15.03;100.00;101553.63;4973289;28;20100;-60
2021/09/19 00:56:55;;;;;;;21.88;15.07;;;;;;;15.11;100.00;101552.00;4979657;28;20128;-60
2021/09/19 00:59:22;;;;;;;21.75;14.63;;;;;;;15.06;100.00;101554.28;4973261;28;20050;-61
2021/09/19 01:01:53;;;;;;;21.85;14.68;;;;;;;15.06;100.00;101559.59;4975309;28;20128;-61
2021/09/19 01:04:20;;;;;;;18.05;13.23;;;;;;;14.99;100.00;101551.44;4982743;28;20074;-61
2021/09/19 01:06:47;;;;;;;18.38;13.25;;;;;;;14.96;100.00;101552.59;4978166;28;20050;-61
2021/09/19 01:09:15;;;;;;;16.42;13.18;;;;;;;15.03;100.00;101560.69;4983716;28;20638;-61
2021/09/19 01:11:42;;;;;;;15.95;11.65;;;;;;;15.15;100.00;101555.97;4971527;28;20089;-61
2021/09/19 01:14:10;;;;;;;16.83;12.95;;;;;;;14.98;100.00;101553.25;4977121;28;20133;-61
2021/09/19 01:16:37;;;;;;;16.88;12.75;;;;;;;14.88;100.00;101551.72;4983367;28;20545;-61
2021/09/19 01:19:05;;;;;;;17.83;13.05;;;;;;;14.91;100.00;101551.41;4976157;28;20133;-60
2021/09/19 01:21:31;;;;;;;15.75;10.38;;;;;;;14.95;100.00;101555.38;4981701;28;20133;-61
2021/09/19 01:24:01;;;;;;;17.20;13.02;;;;;;;14.89;100.00;101558.66;4974947;28;20084;-61
2021/09/19 01:26:29;;;;;;;17.42;13.27;;;;;;;14.91;100.00;101552.22;4974686;28;20141;-61
2021/09/19 01:28:56;;;;;;;20.65;12.60;;;;;;;14.93;100.00;101547.59;4972824;28;20979;-62
2021/09/19 01:31:24;;;;;;;17.50;13.13;;;;;;;14.93;100.00;101560.81;4980894;28;20495;-62
2021/09/19 01:33:51;;;;;;;15.43;12.48;;;;;;;14.87;100.00;101560.63;4977752;28;20050;-60
2021/09/19 01:36:18;;;;;;;17.77;13.85;;;;;;;14.84;100.00;101556.50;4974621;28;20165;-62
2021/09/19 01:38:45;;;;;;;18.95;14.18;;;;;;;14.85;100.00;101559.97;4975174;28;20043;-62
2021/09/19 01:41:23;;;;;;;17.65;14.02;;;;;;;14.81;100.00;101559.44;4969353;28;20153;-62
2021/09/19 01:43:50;;;;;;;;;;;;;;;14.81;100.00;101552.34;4979347;28;20054;-62
2021/09/19 01:46:17;;;;;;;15.68;12.95;;;;;;;14.81;100.00;101556.78;4975938;28;19965;-61
2021/09/19 01:48:44;;;;;;;19.45;15.07;;;;;;;14.80;100.00;101555.97;4991146;28;20047;-61
2021/09/19 01:51:10;;;;;;;21.58;15.45;;;;;;;14.89;100.00;101546.28;4983304;28;20137;-61
2021/09/19 01:53:38;;;;;;;22.58;15.48;;;;;;;15.01;100.00;101547.69;4968158;28;20256;-61
2021/09/19 01:56:07;;;;;;;25.83;16.08;;;;;;;15.04;100.00;101541.25;4978043;28;20088;-61
2021/09/19 01:58:50;;;;;;;22.58;16.15;;;;;;;15.11;100.00;101544.91;4973361;28;20538;-62
2021/09/19 02:01:21;;;;;;;21.70;15.30;;;;;;;15.11;100.00;101539.63;4980946;28;20568;-61
2021/09/19 02:03:49;;;;;;;22.73;15.15;;;;;;;15.05;100.00;101536.78;4973071;28;20108;-60
2021/09/19 02:06:16;;;;;;;18.45;13.32;;;;;;;14.81;100.00;101533.84;4981463;28;20653;-59
2021/09/19 02:08:43;;;;;;;18.48;14.10;;;;;;;14.91;100.00;101525.81;4966771;28;20133;-60
2021/09/19 02:11:12;;;;;;;23.10;14.23;;;;;;;15.19;100.00;101537.00;4979750;28;20078;-60
2021/09/19 02:13:40;;;;;;;19.92;13.93;;;;;;;15.12;100.00;101530.69;4979239;28;20109;-61
2021/09/19 02:16:07;;;;;;;17.27;14.27;;;;;;;15.08;100.00;101525.91;4974686;28;20055;-61
2021/09/19 02:18:34;;;;;;;18.70;14.55;;;;;;;15.05;100.00;101529.66;4978103;28;20073;-61
2021/09/19 02:21:03;;;;;;;17.02;13.38;;;;;;;15.10;100.00;101522.09;4972309;28;20864;-61
2021/09/19 02:23:30;;;;;;;22.45;14.70;;;;;;;15.02;100.00;101522.06;4975014;28;20603;-62
2021/09/19 02:25:59;;;;;;;20.45;14.32;;;;;;;14.85;100.00;101521.16;4976047;28;20576;-61
2021/09/19 02:28:26;;;;;;;18.13;13.20;;;;;;;14.81;100.00;101522.47;4979634;28;20129;-62
2021/09/19 02:30:53;;;;;;;18.23;12.52;;;;;;;14.88;100.00;101517.38;4981659;28;20696;-60
2021/09/19 02:33:20;;;;;;;17.90;14.43;;;;;;;15.02;100.00;101511.50;4972541;28;20776;-60
2021/09/19 02:35:46;;;;;;;17.60;14.25;;;;;;;14.86;100.00;101512.25;4977736;28;20861;-62
2021/09/19 02:38:13;;;;;;;18.20;14.43;;;;;;;14.78;100.00;101515.69;4966365;28;20193;-61
2021/09/19 02:40:39;;;;;;;22.38;15.25;;;;;;;14.91;100.00;101507.31;4978752;28;20151;-61
2021/09/19 02:43:06;;;;;;;19.88;14.77;;;;;;;15.22;100.00;101510.25;4973139;28;20133;-60
2021/09/19 02:45:33;;;;;;;17.90;14.15;;;;;;;15.28;100.00;101503.50;4981243;28;20483;-59
2021/09/19 02:47:59;;;;;;;20.58;14.38;;;;;;;15.24;100.00;101510.09;4979740;28;20538;-61
2021/09/19 02:50:26;;;;;;;18.95;14.02;;;;;;;15.34;100.00;101510.78;4969666;28;20321;-61
2021/09/19 02:52:53;;;;;;;19.13;14.18;;;;;;;15.35;100.00;101507.16;4975689;28;20094;-61
2021/09/19 02:55:20;;;;;;;20.15;14.45;;;;;;;15.33;100.00;101506.50;4974407;28;20492;-61
2021/09/19 02:57:47;;;;;;;18.15;14.35;;;;;;;14.97;100.00;101504.03;4980086;28;20526;-61
2021/09/19 03:00:17;;;;;;;22.05;15.05;;;;;;;15.09;100.00;101499.28;4973429;28;20057;-62
2021/09/19 03:02:44;;;;;;;20.23;14.75;;;;;;;15.14;100.00;101499.66;4977011;28;20086;-60
2021/09/19 03:05:11;;;;;;;20.83;14.95;;;;;;;15.14;100.00;101504.13;4975267;28;20076;-61
2021/09/19 03:07:38;;;;;;;19.60;14.13;;;;;;;15.07;100.00;101497.81;4975604;28;20507;-61
2021/09/19 03:10:06;;;;;;;20.42;14.50;;;;;;;15.20;100.00;101506.13;4980547;28;20211;-61
2021/09/19 03:12:33;;;;;;;19.73;14.38;;;;;;;15.23;100.00;101508.47;4975055;28;20173;-60
2021/09/19 03:15:00;;;;;;;20.48;14.52;;;;;;;15.18;100.00;101502.81;4978730;28;20213;-58
2021/09/19 03:17:27;;;;;;;20.73;14.48;;;;;;;15.14;100.00;101501.47;4967846;28;20061;-59
2021/09/19 03:19:53;;;;;;;22.13;14.95;;;;;;;15.24;100.00;101504.81;4974152;28;20101;-59
2021/09/19 03:22:20;;;;;;;19.50;14.88;;;;;;;15.39;100.00;101512.97;4980717;28;20078;-60
2021/09/19 03:24:46;;;;;;;20.98;14.57;;;;;;;15.43;100.00;101511.66;4973945;28;20606;-57
2021/09/19 03:27:13;;;;;;;21.73;14.82;;;;;;;15.52;100.00;101502.72;4979611;28;20132;-59
2021/09/19 03:29:40;;;;;;;21.38;14.77;;;;;;;15.47;100.00;101504.22;4969380;28;20697;-60
2021/09/19 03:32:07;;;;;;;20.10;14.57;;;;;;;15.56;100.00;101514.66;4977789;28;20543;-60
2021/09/19 03:34:34;;;;;;;22.35;15.88;;;;;;;15.50;100.00;101501.25;4972414;28;20133;-61
2021/09/19 03:37:02;;;;;;;26.23;16.25;;;;;;;15.54;100.00;101506.06;4982017;28;20136;-59
2021/09/19 03:39:28;;;;;;;28.27;17.95;;;;;;;15.60;100.00;101508.06;4975556;28;20078;-60
2021/09/19 03:41:55;;;;;;;26.80;15.95;;;;;;;15.30;100.00;101508.63;4972540;28;20053;-61
2021/09/19 03:44:21;;;;;;;25.70;15.57;;;;;;;14.98;100.00;101499.59;4969017;28;20141;-59
2021/09/19 03:46:48;;;;;;;30.90;19.70;;;;;;;14.89;100.00;101504.00;4963849;28;20136;-61
2021/09/19 03:49:14;;;;;;;30.65;18.10;;;;;;;15.03;100.00;101495.50;4976664;28;20138;-59
2021/09/19 03:51:40;;;;;;;31.88;16.42;;;;;;;15.18;100.00;101495.72;4975522;28;20125;-61
2021/09/19 03:54:07;;;;;;;29.13;17.15;;;;;;;15.43;100.00;101499.25;4973633;28;20054;-60
2021/09/19 03:56:34;;;;;;;23.23;13.77;;;;;;;15.48;100.00;101500.56;4979785;28;20078;-61
2021/09/19 03:59:00;;;;;;;24.95;16.27;;;;;;;15.57;100.00;101500.44;4966038;28;20129;-61
2021/09/19 04:01:26;;;;;;;22.77;16.30;;;;;;;15.53;100.00;101503.56;4975496;28;20141;-61
2021/09/19 04:03:53;;;;;;;20.48;14.50;;;;;;;15.45;100.00;101501.75;4972625;28;20115;-62
2021/09/19 04:06:20;;;;;;;25.33;16.70;;;;;;;15.47;100.00;101505.06;4979468;28;20058;-61
2021/09/19 04:08:46;;;;;;;23.23;15.93;;;;;;;15.48;100.00;101506.69;4970932;28;20133;-61
2021/09/19 04:11:13;;;;;;;24.23;16.42;;;;;;;15.30;100.00;101501.53;4977066;28;20125;-61
2021/09/19 04:13:39;;;;;;;22.98;15.68;;;;;;;15.17;100.00;101501.16;4970387;28;20081;-60
2021/09/19 04:16:06;;;;;;;24.48;16.23;;;;;;;15.28;100.00;101511.44;4970745;28;20050;-61
2021/09/19 04:18:32;;;;;;;29.42;16.13;;;;;;;15.34;100.00;101502.84;4976447;28;20137;-61
2021/09/19 04:20:59;;;;;;;20.85;15.20;;;;;;;15.02;100.00;101509.69;4972513;28;20593;-61
2021/09/19 04:23:26;;;;;;;24.40;15.77;;;;;;;14.74;100.00;101502.94;4977608;28;20085;-61
2021/09/19 04:25:52;;;;;;;21.95;14.60;;;;;;;15.08;100.00;101502.94;4972595;28;20149;-61
2021/09/19 04:28:18;;;;;;;22.00;14.73;;;;;;;15.28;100.00;101500.03;4972097;28;20567;-61
2021/09/19 04:30:45;;;;;;;26.73;15.65;;;;;;;15.13;100.00;101502.44;4980096;28;20133;-61
2021/09/19 04:33:12;;;;;;;25.48;15.57;;;;;;;14.95;100.00;101507.84;4970013;28;20140;-61
2021/09/19 04:35:38;;;;;;;24.45;15.35;;;;;;;15.11;100.00;101509.72;4981576;28;20058;-61
2021/09/19 04:38:06;;;;;;;21.48;15.23;;;;;;;15.29;100.00;101504.31;4970179;28;20077;-61
2021/09/19 04:40:33;;;;;;;23.10;14.82;;;;;;;15.14;100.00;101504.94;4977335;28;20142;-61
2021/09/19 04:42:59;;;;;;;18.67;13.15;;;;;;;15.10;100.00;101502.78;4967731;28;20058;-61
2021/09/19 04:45:26;;;;;;;22.70;15.30;;;;;;;15.09;100.00;101507.22;4981780;28;20054;-59
2021/09/19 04:47:52;;;;;;;24.55;14.50;;;;;;;14.77;100.00;101505.28;4977094;28;20926;-60
2021/09/19 04:50:19;;;;;;;26.67;15.23;;;;;;;14.50;100.00;101509.69;4975179;28;20042;-61
2021/09/19 04:52:45;;;;;;;23.15;14.75;;;;;;;14.50;100.00;101509.69;4976321;28;20786;-59
2021/09/19 04:55:12;;;;;;;28.23;16.38;;;;;;;14.63;100.00;101510.16;4967246;28;20134;-60
2021/09/19 04:57:38;;;;;;;23.77;14.77;;;;;;;14.95;100.00;101506.00;4975881;28;20086;-60
2021/09/19 05:00:06;;;;;;;24.75;15.60;;;;;;;15.00;100.00;101506.38;4975761;28;20057;-61
2021/09/19 05:02:33;;;;;;;25.17;15.60;;;;;;;15.09;100.00;101503.75;4974724;28;20134;-62
2021/09/19 05:04:59;;;;;;;26.17;16.50;;;;;;;15.10;100.00;101498.31;4980127;28;20058;-62
2021/09/19 05:07:26;;;;;;;23.30;15.02;;;;;;;15.10;100.00;101498.31;4966205;28;20141;-62
2021/09/19 05:09:52;;;;;;;24.83;14.60;;;;;;;15.00;100.00;101493.16;4977103;28;20078;-59
2021/09/19 05:12:19;;;;;;;21.40;14.35;;;;;;;14.90;100.00;101502.22;4969743;28;20055;-58
2021/09/19 05:14:46;;;;;;;22.13;14.48;;;;;;;14.93;100.00;101502.69;4980383;28;20125;-62
2021/09/19 05:17:13;;;;;;;23.27;13.82;;;;;;;14.86;100.00;101496.41;4976396;28;20543;-60
2021/09/19 05:19:39;;;;;;;21.88;14.13;;;;;;;14.89;100.00;101506.66;4972557;28;20053;-60
2021/09/19 05:22:06;;;;;;;23.60;14.73;;;;;;;14.94;100.00;101498.28;4968111;28;20827;-62
2021/09/19 05:24:32;;;;;;;26.20;13.95;;;;;;;15.00;100.00;101490.53;4972674;28;20141;-61
2021/09/19 05:26:59;;;;;;;20.85;12.77;;;;;;;14.92;100.00;101502.88;4975615;28;20133;-61
2021/09/19 05:29:25;;;;;;;22.70;14.15;;;;;;;14.58;100.00;101496.59;4972137;28;20413;-62
2021/09/19 05:31:52;;;;;;;23.08;14.82;;;;;;;14.56;100.00;101489.78;4975862;28;20101;-62
2021/09/19 05:34:18;;;;;;;23.70;13.85;;;;;;;14.62;100.00;101489.19;4975948;28;20148;-61
2021/09/19 05:36:45;;;;;;;21.13;14.98;;;;;;;14.90;100.00;101497.75;4966010;28;20060;-62
2021/09/19 05:39:11;;;;;;;25.33;14.80;;;;;;;15.01;100.00;101488.72;4977991;28;20134;-63
2021/09/19 05:41:38;;;;;;;25.30;14.93;;;;;;;15.02;100.00;101504.41;4970898;28;20101;-61
2021/09/19 05:44:04;;;;;;;23.08;14.90;;;;;;;15.13;100.00;101495.38;4980808;28;20062;-59
2021/09/19 05:46:31;;;;;;;24.55;15.55;;;;;;;14.63;100.00;101510.16;4972847;28;21121;-61
2021/09/19 05:48:59;;;;;;;25.85;15.20;;;;;;;14.85;100.00;101505.31;4978272;28;20071;-60
2021/09/19 05:51:27;;;;;;;21.65;14.60;;;;;;;14.78;100.00;101502.47;4975645;28;20129;-62
2021/09/19 05:53:53;;;;;;;20.50;13.93;;;;;;;14.91;100.00;101502.03;4976334;28;20827;-60
2021/09/19 05:56:20;;;;;;;21.08;14.30;;;;;;;14.55;100.00;101501.34;4979796;28;20856;-61
2021/09/19 05:58:46;;;;;;;20.83;13.70;;;;;;;14.77;100.00;101502.63;4976765;28;20555;-60
2021/09/19 06:01:13;;;;;;;22.65;14.55;;;;;;;14.24;100.00;101512.34;4978541;28;20054;-60
2021/09/19 06:03:41;;;;;;;21.85;13.52;;;;;;;14.60;100.00;101507.00;4970454;28;20082;-59
2021/09/19 06:06:07;;;;;;;23.13;14.48;;;;;;;14.41;100.00;101514.13;4974853;28;20064;-61
2021/09/19 06:08:34;;;;;;;20.80;13.98;;;;;;;14.56;100.00;101511.78;4981518;28;20141;-59
2021/09/19 06:11:01;;;;;;;23.90;14.57;;;;;;;14.70;100.00;101515.66;4978643;28;20080;-61
2021/09/19 06:13:28;;;;;;;19.00;12.63;;;;;;;14.64;100.00;101516.25;4979678;28;20426;-60
2021/09/19 06:15:54;;;;;;;17.42;12.80;;;;;;;14.55;100.00;101527.72;4971323;28;20078;-61
2021/09/19 06:18:22;;;;;;;18.65;12.57;;;;;;;14.58;100.00;101524.81;4975744;28;20050;-61
2021/09/19 06:20:48;;;;;;;19.92;12.57;;;;;;;14.81;100.00;101527.75;4975029;28;20128;-60
2021/09/19 06:23:15;;;;;;;21.33;13.80;;;;;;;14.30;100.00;101519.63;4982905;28;20582;-60
2021/09/19 06:25:41;;;;;;;17.05;12.45;;;;;;;14.58;100.00;101522.16;4981677;28;20133;-62
2021/09/19 06:28:08;;;;;;;19.42;12.90;;;;;;;14.78;100.00;101522.78;4973058;28;20101;-57
2021/09/19 06:30:34;;;;;;;18.08;12.38;;;;;;;14.56;100.00;101522.34;4974029;28;20137;-61
2021/09/19 06:33:01;;;;;;;16.63;12.30;;;;;;;14.46;100.00;101515.47;4969411;28;20050;-61
2021/09/19 06:35:27;;;;;;;18.42;12.63;;;;;;;14.55;100.00;101517.19;4978727;28;20165;-61
2021/09/19 06:37:54;;;;;;;19.55;13.30;;;;;;;14.77;100.00;101523.75;4974912;28;20456;-61
2021/09/19 06:40:21;;;;;;;19.95;14.02;;;;;;;14.70;100.00;101520.09;4980119;28;20526;-60
2021/09/19 06:42:48;;;;;;;19.80;13.57;;;;;;;14.54;100.00;101512.88;4979875;28;20051;-59
2021/09/19 06:45:14;;;;;;;19.52;12.95;;;;;;;14.50;100.00;101520.25;4971859;28;20086;-61
2021/09/19 06:47:43;;;;;;;19.45;12.48;;;;;;;14.51;100.00;101527.22;4976154;28;20137;-61
2021/09/19 06:50:12;;;;;;;18.80;12.27;;;;;;;14.91;100.00;101532.91;4972062;28;20142;-61
2021/09/19 06:52:38;;;;;;;;;;;;;;;15.10;100.00;101526.56;4981762;28;20449;-60
2021/09/19 06:55:06;;;;;;;18.98;12.63;;;;;;;15.22;100.00;101522.66;4971977;28;19926;-61
2021/09/19 06:57:33;;;;;;;15.57;11.18;;;;;;;15.30;100.00;101537.72;4979042;28;20129;-61
2021/09/19 07:00:01;;;;;;;18.02;12.15;;;;;;;15.41;100.00;101540.06;4966306;28;20085;-59
2021/09/19 07:02:27;;;;;;;18.98;12.27;;;;;;;15.39;100.00;101529.66;4974581;28;20984;-62
2021/09/19 07:04:54;;;;;;;20.10;12.77;;;;;;;15.39;100.00;101532.28;4980955;28;20050;-58
2021/09/19 07:07:20;;;;;;;18.55;12.10;;;;;;;15.50;100.00;101536.44;4972596;28;20576;-62
2021/09/19 07:09:47;;;;;;;18.00;12.23;;;;;;;15.56;100.00;101535.81;4981698;28;20138;-63
2021/09/19 07:12:13;;;;;;;18.88;12.40;;;;;;;15.57;100.00;101537.47;4968097;28;20133;-62
2021/09/19 07:14:40;;;;;;;19.25;12.73;;;;;;;15.58;100.00;101530.34;4975951;28;20092;-61
2021/09/19 07:17:06;;;;;;;16.63;11.82;;;;;;;15.18;100.00;101529.25;4972129;28;20215;-62
2021/09/19 07:19:33;;;;;;;17.27;12.13;;;;;;;15.29;100.00;101528.97;4978845;28;20082;-60
2021/09/19 07:21:59;;;;;;;16.25;11.30;;;;;;;15.76;100.00;101540.84;4977905;28;20089;-62
2021/09/19 07:24:26;;;;;;;19.50;12.90;;;;;;;15.53;100.00;101543.25;4974345;28;20085;-63
2021/09/19 07:26:52;;;;;;;16.13;12.05;;;;;;;16.13;100.00;101542.19;4972560;28;20831;-62
2021/09/19 07:29:19;;;;;;;17.83;12.15;;;;;;;16.36;97.94;101552.94;4963106;28;20142;-62
2021/09/19 07:31:50;;;;;;;19.10;12.90;;;;;;;15.54;100.00;101543.09;4975502;28;20588;-63
2021/09/19 07:34:17;;;;;;;17.38;12.52;;;;;;;15.14;100.00;101541.94;4972488;28;20148;-62
2021/09/19 07:36:46;;;;;;;17.95;12.95;;;;;;;15.58;100.00;101541.78;4972209;28;20064;-62
2021/09/19 07:39:12;;;;;;;19.02;12.85;;;;;;;15.88;100.00;101536.06;4977294;28;20090;-60
2021/09/19 07:41:39;;;;;;;13.38;9.55;;;;;;;15.57;100.00;101545.38;4963706;28;20141;-62
2021/09/19 07:44:06;;;;;;;18.65;12.23;;;;;;;15.30;100.00;101553.56;4974961;28;20579;-62
2021/09/19 07:46:33;;;;;;;16.83;12.18;;;;;;;15.72;100.00;101553.53;4969167;28;20909;-63
2021/09/19 07:48:59;;;;;;;21.15;12.60;;;;;;;15.62;100.00;101551.03;4977477;28;20689;-62
2021/09/19 07:51:26;;;;;;;17.48;11.75;;;;;;;15.46;100.00;101556.25;4971938;28;20148;-62
2021/09/19 07:53:53;;;;;;;19.40;12.75;;;;;;;15.96;100.00;101558.06;4975167;28;20578;-63
2021/09/19 07:56:21;;;;;;;21.38;12.98;;;;;;;15.78;100.00;101554.72;4969311;28;20140;-62
2021/09/19 07:58:49;;;;;;;21.80;13.82;;;;;;;15.71;100.00;101562.44;4975322;28;20057;-63
2021/09/19 08:01:15;;;;;;;18.23;12.80;;;;;;;15.95;100.00;101553.75;4973953;28;20050;-62
2021/09/19 08:03:47;;;;;;;14.00;9.70;;;;;;;16.18;100.00;101564.50;4973442;28;20046;-59
2021/09/19 08:06:15;;;;;;;17.02;12.30;;;;;;;16.03;100.00;101563.50;4973812;28;20057;-63
2021/09/19 08:08:42;;;;;;;20.95;13.02;;;;;;;15.78;100.00;101563.50;4970524;28;20841;-62
2021/09/19 08:11:08;;;;;;;17.25;11.65;;;;;;;15.93;100.00;101568.13;4968715;28;20168;-61
2021/09/19 08:13:36;;;;;;;13.55;8.57;;;;;;;16.43;100.00;101561.88;4976961;28;20058;-63
2021/09/19 08:16:05;;;;;;;17.05;10.70;;;;;;;16.38;100.00;101566.81;4968014;28;20137;-63
2021/09/19 08:18:32;;;;;;;16.45;10.73;;;;;;;16.08;100.00;101570.97;4977419;28;20050;-63
2021/09/19 08:20:58;;;;;;;15.75;10.80;;;;;;;15.99;100.00;101560.38;4967915;28;20100;-62
2021/09/19 08:23:25;;;;;;;17.20;9.93;;;;;;;15.96;100.00;101565.19;4973381;28;20133;-62
2021/09/19 08:25:52;;;;;;;19.42;11.60;;;;;;;15.99;100.00;101565.69;4969947;28;20133;-62
2021/09/19 08:28:18;;;;;;;16.15;11.05;;;;;;;16.18;100.00;101558.41;4977818;28;20062;-60
2021/09/19 08:30:45;;;;;;;14.18;9.27;;;;;;;16.56;100.00;101570.13;4973894;28;20105;-62
2021/09/19 08:33:11;;;;;;;18.10;11.23;;;;;;;16.82;100.00;101562.97;4969107;28;20050;-61
2021/09/19 08:35:38;;;;;;;13.70;9.68;;;;;;;16.79;100.00;101567.59;4971533;28;20666;-64
2021/09/19 08:38:06;;;;;;;13.88;10.20;;;;;;;16.54;100.00;101566.84;4968305;28;20902;-61
2021/09/19 08:40:33;;;;;;;13.15;8.13;;;;;;;16.71;100.00;101572.09;4972955;28;20330;-61
2021/09/19 08:43:00;;;;;;;17.08;11.02;;;;;;;17.04;100.00;101567.56;4971668;28;20055;-60
2021/09/19 08:45:26;;;;;;;17.85;11.23;;;;;;;17.18;100.00;101571.31;4975231;28;20081;-63
2021/09/19 08:47:53;;;;;;;17.70;10.85;;;;;;;17.52;97.48;101575.47;4974890;28;20157;-63
2021/09/19 08:50:21;;;;;;;15.82;10.80;;;;;;;17.68;96.08;101578.06;4963782;28;20487;-63
2021/09/19 08:52:49;;;;;;;16.83;10.60;;;;;;;17.98;94.79;101576.38;4977396;28;20070;-61
2021/09/19 08:55:15;;;;;;;17.33;11.27;;;;;;;18.11;94.23;101567.84;4968216;28;20134;-59
2021/09/19 08:57:42;;;;;;;15.48;10.90;;;;;;;18.16;94.99;101577.91;4974451;28;20089;-62
2021/09/19 09:00:16;;;;;;;14.05;8.73;;;;;;;18.06;93.98;101580.81;4969355;28;20142;-60
2021/09/19 09:02:53;;;;;;;17.48;10.57;;;;;;;18.25;94.19;101582.19;4970771;28;20288;-60
2021/09/19 09:05:28;;;;;;;10.80;7.35;;;;;;;18.62;90.21;101577.88;4973506;28;20058;-60
2021/09/19 09:07:58;;;;;;;14.13;9.60;;;;;;;18.64;92.07;101577.66;4969051;28;20051;-60
2021/09/19 09:10:30;;;;;;;16.13;10.30;;;;;;;18.93;90.33;101579.56;4974646;28;20090;-59
2021/09/19 09:13:06;;;;;;;16.80;9.88;;;;;;;18.99;89.36;101565.53;4967369;28;20607;-61
2021/09/19 09:15:35;;;;;;;19.42;10.07;;;;;;;19.17;86.83;101568.66;4970872;28;20112;-60
2021/09/19 09:18:04;;;;;;;17.17;9.82;;;;;;;18.95;88.32;101570.41;4967386;28;20061;-60
2021/09/19 09:20:53;;;;;;;13.68;9.30;;;;;;;18.75;90.39;101570.06;4980375;28;20548;-63
2021/09/19 09:23:21;;;;;;;16.20;9.50;;;;;;;19.25;88.83;101569.53;4974938;28;20052;-59
2021/09/19 09:26:10;;;;;;;15.05;9.13;;;;;;;19.48;86.69;101572.06;4981737;28;20134;-61
2021/09/19 09:28:52;;;;;;;14.50;9.25;;;;;;;19.78;84.41;101575.53;4969793;28;20063;-60
2021/09/19 09:31:27;;;;;;;16.45;9.32;;;;;;;19.61;84.58;101576.72;4978637;28;20146;-58
2021/09/19 09:33:57;;;;;;;15.35;9.80;;;;;;;19.39;87.04;101573.22;4978491;28;20070;-60
2021/09/19 09:36:35;;;;;;;13.43;9.10;;;;;;;19.51;87.66;101569.03;4972591;28;20157;-61
2021/09/19 09:39:21;;;;;;;17.88;9.50;;;;;;;19.50;86.04;101572.69;4980046;28;20678;-62
2021/09/19 09:41:48;;;;;;;17.90;9.70;;;;;;;19.92;85.23;101566.63;4965794;28;20108;-60
2021/09/19 09:44:29;;;;;;;13.48;8.57;;;;;;;20.08;83.23;101572.72;4977246;28;20150;-61
2021/09/19 09:46:56;;;;;;;11.45;8.00;;;;;;;20.69;79.25;101570.34;4972617;28;20056;-60
2021/09/19 09:49:34;;;;;;;11.07;6.97;;;;;;;21.08;76.06;101576.13;4980978;28;20082;-61
2021/09/19 09:52:06;;;;;;;12.38;7.38;;;;;;;21.25;74.84;101572.09;4973158;28;20527;-61
2021/09/19 09:54:45;;;;;;;10.25;6.82;;;;;;;21.11;72.81;101570.38;4979450;28;20791;-63
2021/09/19 09:57:14;;;;;;;8.95;5.78;;;;;;;20.92;74.86;101574.59;4967181;28;20054;-61
2021/09/19 09:59:43;;;;;;;10.90;6.53;;;;;;;20.92;74.33;101578.09;4978123;28;20141;-61
2021/09/19 10:02:11;;;;;;;9.60;5.18;;;;;;;21.10;72.68;101574.09;4976348;28;20092;-60
2021/09/19 10:04:38;;;;;;;10.60;6.40;;;;;;;22.03;68.92;101574.41;4975825;28;20578;-61
2021/09/19 10:07:05;;;;;;;8.43;5.18;;;;;;;21.44;71.16;101575.88;4978492;28;20624;-62
2021/09/19 10:09:32;;;;;;;10.85;5.35;;;;;;;21.41;71.70;101570.13;4971378;28;20054;-62
2021/09/19 10:11:58;;;;;;;8.80;5.43;;;;;;;21.49;70.05;101569.97;4973484;28;20054;-62
2021/09/19 10:14:25;;;;;;;8.82;5.32;;;;;;;21.55;69.64;101568.34;4972833;28;20136;-62
2021/09/19 10:16:52;;;;;;;8.63;5.00;;;;;;;21.73;71.81;101574.72;4976579;28;20567;-62
2021/09/19 10:19:20;;;;;;;8.95;5.70;;;;;;;21.90;70.83;101569.84;4970736;28;20157;-60
2021/09/19 10:21:49;;;;;;;8.38;5.05;;;;;;;22.03;68.77;101565.53;4973040;28;20054;-62
2021/09/19 10:24:17;;;;;;;8.35;6.25;;;;;;;22.46;66.79;101560.66;4971566;28;20136;-62
2021/09/19 10:26:56;;;;;;;8.45;5.95;;;;;;;22.23;68.48;101562.91;4966705;28;20132;-63
2021/09/19 10:29:27;;;;;;;7.93;5.68;;;;;;;22.28;67.66;101555.09;4975484;28;20630;-62
2021/09/19 10:31:57;;;;;;;8.88;5.85;;;;;;;22.49;66.84;101559.41;4973067;28;20054;-62
2021/09/19 10:34:30;;;;;;;8.70;5.13;;;;;;;22.76;69.33;101554.00;4977882;28;20190;-62
2021/09/19 10:36:58;;;;;;;10.63;5.57;;;;;;;22.79;66.25;101556.25;4973686;28;20074;-62
2021/09/19 10:39:37;;;;;;;9.63;5.72;;;;;;;22.96;68.60;101552.09;4967237;28;20478;-62
2021/09/19 10:42:16;;;;;;;7.70;5.63;;;;;;;23.08;64.68;101553.09;4978797;28;20165;-63
2021/09/19 10:44:46;;;;;;;11.13;5.78;;;;;;;23.29;64.71;101546.63;4972018;28;20054;-62
2021/09/19 10:47:25;;;;;;;9.57;5.88;;;;;;;23.33;64.21;101547.03;4978623;28;20050;-62
2021/09/19 10:50:12;;;;;;;7.18;5.13;;;;;;;23.37;63.93;101552.78;4972193;28;20184;-63
2021/09/19 10:52:41;;;;;;;10.27;6.38;;;;;;;23.52;65.98;101547.13;4970057;28;20140;-62
2021/09/19 10:55:26;;;;;;;8.30;5.65;;;;;;;23.29;61.86;101557.34;4969359;28;20164;-62
2021/09/19 10:58:00;;;;;;;9.55;5.93;;;;;;;23.54;64.52;101556.63;4978914;28;20047;-62
2021/09/19 11:00:28;;;;;;;10.43;5.93;;;;;;;23.60;62.47;101557.59;4969645;28;20145;-62
2021/09/19 11:03:02;;;;;;;9.63;5.90;;;;;;;23.83;63.58;101557.06;4976703;28;20050;-63
2021/09/19 11:05:50;;;;;;;7.65;5.18;;;;;;;23.93;63.18;101549.34;4972176;28;20054;-63
2021/09/19 11:08:19;;;;;;;7.82;5.03;;;;;;;24.08;62.69;101549.84;4971326;28;20078;-63
2021/09/19 11:10:46;;;;;;;7.63;5.18;;;;;;;24.19;60.33;101558.25;4977684;28;20113;-63